Highway 40, Nevada
Current Conditions -  °F | °C
As of 7:56 PM on Saturday 25 Oct 2014 (Local Time) from KWMC Reporting Station
Clear Clear  
Wind Chill: 55°   Ceiling: Unl
Heat Index: 55°   Visibility: 10mi
Dew Point: 23°   Wind: 17mph
Humidity: 29%   Direction: 240°WSW
Pressure: 29.97"   Gusts: 28mph
Location:  41.5215°N, 118.961°W
Report Text: KWMC 260256Z AUTO 24015G24KT 10SM CLR 13/M05 A2997 RMK AO2 PK WND 24029/0217 RAB00E10 SLP123 P0000 60000 T01281050 53013
Loading
Personal Weather Stations






























Interactive Weather Map
Tropical Storm Tracking
New forecast layout! Learn more

10-Day Weather Forecast

Advertisements
Track Severe Weather on mobile